Time;durP1;ratioP1;P1;durP2;ratioP2;P2;SDS_P1;SDS_P2;PMS_P1;PMS_P2;Temp;Humidity;BMP_temperature;BMP_pressure;BME280_temperature;BME280_humidity;BME280_pressure;Samples;Min_cycle;Max_cycle;Signal;HPM_P1;HPM_P2
2022/08/21 00:01:12;;;;;;;1.40;0.90;;;22.70;99.90;;;;;;5092000;28;20038;-62
2022/08/21 00:03:38;;;;;;;2.15;1.15;;;22.90;99.90;;;;;;5091900;28;20105;-62
2022/08/21 00:06:04;;;;;;;1.08;0.98;;;23.00;99.90;;;;;;5091937;28;20028;-62
2022/08/21 00:08:30;;;;;;;2.78;1.05;;;22.80;99.90;;;;;;5092311;28;20105;-62
2022/08/21 00:10:56;;;;;;;1.85;1.00;;;22.70;99.90;;;;;;5095691;28;20028;-62
2022/08/21 00:13:21;;;;;;;1.35;0.90;;;22.80;99.90;;;;;;5095930;28;20054;-62
2022/08/21 00:15:48;;;;;;;1.42;1.00;;;22.90;99.90;;;;;;5095556;28;20453;-62
2022/08/21 00:18:15;;;;;;;1.42;0.90;;;22.80;99.90;;;;;;5095490;28;20477;-63
2022/08/21 00:20:43;;;;;;;1.23;0.98;;;23.00;99.90;;;;;;5095983;28;20024;-63
2022/08/21 00:23:09;;;;;;;1.55;0.95;;;22.60;99.90;;;;;;5095030;28;20024;-62
2022/08/21 00:25:36;;;;;;;1.48;1.10;;;22.90;99.90;;;;;;5094866;28;20536;-62
2022/08/21 00:28:03;;;;;;;2.05;1.00;;;22.60;99.90;;;;;;5095803;28;20034;-62
2022/08/21 00:30:29;;;;;;;3.05;1.00;;;22.60;99.90;;;;;;5095483;28;20055;-63
2022/08/21 00:32:56;;;;;;;1.85;0.93;;;22.90;99.90;;;;;;5095390;28;20081;-62
2022/08/21 00:35:25;;;;;;;2.22;1.10;;;22.50;99.90;;;;;;5095384;28;20055;-63
2022/08/21 00:37:51;;;;;;;2.22;1.00;;;22.70;99.90;;;;;;5095149;28;20055;-63
2022/08/21 00:40:22;;;;;;;1.42;1.00;;;22.70;99.90;;;;;;5095036;28;20056;-63
2022/08/21 00:42:49;;;;;;;1.90;0.98;;;22.70;99.90;;;;;;5095583;28;20103;-62
2022/08/21 00:45:14;;;;;;;1.17;0.80;;;22.70;99.90;;;;;;5094892;28;20048;-62
2022/08/21 00:47:40;;;;;;;1.70;0.90;;;22.40;99.90;;;;;;5094946;28;20032;-62
2022/08/21 00:50:08;;;;;;;1.65;1.10;;;22.90;99.90;;;;;;5095043;28;20137;-63
2022/08/21 00:52:36;;;;;;;2.38;0.85;;;22.40;99.90;;;;;;5094854;28;20059;-62
2022/08/21 00:55:06;;;;;;;2.30;1.10;;;22.40;99.90;;;;;;5094670;28;20087;-62
2022/08/21 00:57:42;;;;;;;1.92;1.02;;;22.30;99.90;;;;;;5095286;28;20036;-62
2022/08/21 01:00:11;;;;;;;2.13;0.90;;;22.30;99.90;;;;;;5094965;28;20024;-62
2022/08/21 01:02:38;;;;;;;2.42;1.17;;;22.50;99.90;;;;;;5094864;28;20078;-62
2022/08/21 01:05:04;;;;;;;2.20;1.20;;;22.60;99.90;;;;;;5094503;28;20476;-62
2022/08/21 01:07:31;;;;;;;1.88;0.82;;;22.50;99.90;;;;;;5094140;28;20489;-62
2022/08/21 01:09:57;;;;;;;1.50;0.82;;;22.60;99.90;;;;;;5094584;28;20037;-62
2022/08/21 01:12:23;;;;;;;2.15;0.90;;;22.40;99.90;;;;;;5094634;28;20070;-63
2022/08/21 01:14:49;;;;;;;2.53;1.10;;;22.30;99.90;;;;;;5094428;28;20085;-62
2022/08/21 01:17:15;;;;;;;1.17;0.93;;;22.30;99.90;;;;;;5094635;28;20049;-62
2022/08/21 01:19:41;;;;;;;1.70;1.10;;;22.30;99.90;;;;;;5094504;28;20494;-62
2022/08/21 01:22:07;;;;;;;1.17;0.90;;;22.60;99.90;;;;;;5093312;28;20020;-62
2022/08/21 01:24:33;;;;;;;1.98;0.90;;;22.20;99.90;;;;;;5094386;28;20031;-62
2022/08/21 01:27:01;;;;;;;0.90;0.80;;;22.20;99.90;;;;;;5094914;28;20035;-62
2022/08/21 01:29:35;;;;;;;2.17;1.05;;;22.20;99.90;;;;;;5094126;28;20504;-63
2022/08/21 01:32:06;;;;;;;1.73;0.90;;;22.40;99.90;;;;;;5094440;28;20024;-62
2022/08/21 01:34:34;;;;;;;1.35;0.77;;;22.20;99.90;;;;;;5094487;28;20027;-62
2022/08/21 01:36:59;;;;;;;2.15;0.93;;;22.10;99.90;;;;;;5093644;28;20036;-62
2022/08/21 01:39:25;;;;;;;2.78;0.95;;;22.20;99.90;;;;;;5093907;28;20050;-62
2022/08/21 01:41:51;;;;;;;2.40;0.90;;;22.20;99.90;;;;;;5093845;28;20034;-62
2022/08/21 01:44:21;;;;;;;2.17;0.95;;;22.50;99.90;;;;;;5094092;28;20059;-62
2022/08/21 01:46:47;;;;;;;1.58;0.90;;;22.60;99.90;;;;;;5093909;28;20032;-62
2022/08/21 01:49:15;;;;;;;2.00;0.82;;;22.30;99.90;;;;;;5093810;28;20047;-63
2022/08/21 01:51:40;;;;;;;1.80;1.10;;;22.00;99.90;;;;;;5093678;28;20024;-62
2022/08/21 01:54:06;;;;;;;1.63;1.00;;;22.20;99.90;;;;;;5093697;28;20025;-63
2022/08/21 01:56:41;;;;;;;1.52;0.90;;;22.10;99.90;;;;;;5093732;28;20023;-62
2022/08/21 01:59:07;;;;;;;1.70;1.00;;;22.30;99.90;;;;;;5093676;28;20450;-63
2022/08/21 02:01:33;;;;;;;1.40;0.80;;;22.40;99.90;;;;;;5094013;28;20027;-63
2022/08/21 02:03:59;;;;;;;1.35;0.82;;;22.30;99.90;;;;;;5092464;28;20028;-63
2022/08/21 02:06:25;;;;;;;2.35;1.00;;;22.10;99.90;;;;;;5093002;28;20032;-63
2022/08/21 02:08:52;;;;;;;1.73;1.02;;;22.20;99.90;;;;;;5093380;28;20024;-63
2022/08/21 02:11:18;;;;;;;1.58;1.10;;;22.20;99.90;;;;;;5093859;28;20385;-63
2022/08/21 02:13:43;;;;;;;1.30;0.90;;;22.10;99.90;;;;;;5093401;28;20020;-63
2022/08/21 02:16:10;;;;;;;1.45;1.00;;;22.40;99.90;;;;;;5093388;28;20065;-63
2022/08/21 02:18:36;;;;;;;2.45;0.90;;;22.00;99.90;;;;;;5093370;28;20024;-63
2022/08/21 02:21:03;;;;;;;1.90;1.10;;;22.10;99.90;;;;;;5092902;28;20028;-63
2022/08/21 02:23:29;;;;;;;1.52;0.93;;;22.20;99.90;;;;;;5093312;28;20213;-62
2022/08/21 02:25:57;;;;;;;1.40;1.10;;;21.80;99.90;;;;;;5093228;28;20451;-63
2022/08/21 02:28:23;;;;;;;1.20;0.80;;;21.80;99.90;;;;;;5093109;28;20032;-63
2022/08/21 02:30:49;;;;;;;5.63;1.30;;;22.10;99.90;;;;;;5093454;28;20442;-63
2022/08/21 02:33:16;;;;;;;1.90;0.90;;;22.00;99.90;;;;;;5092913;28;20036;-62
2022/08/21 02:35:43;;;;;;;1.52;1.00;;;22.20;99.90;;;;;;5092566;28;20503;-62
2022/08/21 02:38:13;;;;;;;1.42;0.90;;;21.80;99.90;;;;;;5092978;28;20020;-63
2022/08/21 02:40:42;;;;;;;2.28;1.00;;;22.10;99.90;;;;;;5093041;28;20081;-63
2022/08/21 02:43:08;;;;;;;1.50;0.98;;;22.10;99.90;;;;;;5092826;28;20457;-62
2022/08/21 02:45:34;;;;;;;1.15;1.00;;;22.00;99.90;;;;;;5092686;28;20067;-63
2022/08/21 02:48:07;;;;;;;1.35;1.00;;;22.00;99.90;;;;;;5092811;28;20039;-62
2022/08/21 02:50:40;;;;;;;0.90;0.90;;;21.80;99.90;;;;;;5092880;28;20059;-63
2022/08/21 02:53:07;;;;;;;1.90;1.00;;;21.90;99.90;;;;;;5092680;28;20094;-63
2022/08/21 02:55:34;;;;;;;1.50;0.98;;;21.70;99.90;;;;;;5092505;28;20418;-62
2022/08/21 02:58:01;;;;;;;1.20;0.80;;;21.70;99.90;;;;;;5092785;28;20500;-62
2022/08/21 03:00:30;;;;;;;1.27;0.98;;;22.00;99.90;;;;;;5093079;28;20168;-62
2022/08/21 03:02:59;;;;;;;1.75;1.00;;;21.60;99.90;;;;;;5092472;28;20027;-62
2022/08/21 03:05:26;;;;;;;2.13;0.93;;;21.80;99.90;;;;;;5092331;28;20021;-62
2022/08/21 03:07:52;;;;;;;2.05;0.90;;;21.80;99.90;;;;;;5092495;28;20135;-62
2022/08/21 03:10:20;;;;;;;2.28;0.98;;;21.90;99.90;;;;;;5092820;28;20063;-62
2022/08/21 03:12:47;;;;;;;3.10;0.90;;;21.50;99.90;;;;;;5092342;28;20020;-62
2022/08/21 03:15:17;;;;;;;1.42;1.02;;;21.60;99.90;;;;;;5092453;28;20024;-62
2022/08/21 03:17:43;;;;;;;2.10;0.80;;;21.80;99.90;;;;;;5092224;28;20514;-62
2022/08/21 03:20:10;;;;;;;1.05;0.80;;;21.60;99.90;;;;;;5092434;28;20031;-62
2022/08/21 03:22:36;;;;;;;2.17;1.00;;;21.50;99.90;;;;;;5092229;28;20457;-62
2022/08/21 03:25:03;;;;;;;2.90;1.02;;;22.10;99.90;;;;;;5092265;28;20098;-62
2022/08/21 03:27:30;;;;;;;1.60;0.90;;;21.60;99.90;;;;;;5092138;28;20035;-62
2022/08/21 03:29:57;;;;;;;1.45;0.90;;;21.90;99.90;;;;;;5092676;28;20031;-62
2022/08/21 03:32:23;;;;;;;2.22;1.10;;;21.60;99.90;;;;;;5091310;28;20020;-62
2022/08/21 03:34:48;;;;;;;1.33;0.90;;;21.70;99.90;;;;;;5092521;28;20074;-62
2022/08/21 03:37:15;;;;;;;2.28;1.08;;;21.60;99.90;;;;;;5092192;28;20028;-62
2022/08/21 03:39:41;;;;;;;2.45;1.10;;;21.40;99.90;;;;;;5092090;28;20023;-62
2022/08/21 03:42:08;;;;;;;2.30;1.17;;;22.00;99.90;;;;;;5092090;28;20024;-62
2022/08/21 03:44:34;;;;;;;1.15;0.93;;;21.50;99.90;;;;;;5110055;28;20119;-62
2022/08/21 03:47:00;;;;;;;2.35;1.10;;;21.70;99.90;;;;;;5096226;28;20036;-61
2022/08/21 03:49:26;;;;;;;1.00;0.90;;;21.40;99.90;;;;;;5096162;28;20032;-62
2022/08/21 03:51:52;;;;;;;1.50;0.90;;;21.70;99.90;;;;;;5096260;28;20141;-62
2022/08/21 03:54:18;;;;;;;1.13;0.77;;;21.30;99.90;;;;;;5095944;28;20374;-62
2022/08/21 03:56:44;;;;;;;1.60;0.90;;;21.60;99.90;;;;;;5096407;28;20028;-62
2022/08/21 03:59:10;;;;;;;1.25;0.77;;;21.40;99.90;;;;;;5096087;28;20031;-62
2022/08/21 04:01:36;;;;;;;1.85;1.13;;;21.40;99.90;;;;;;5095467;28;20377;-62
2022/08/21 04:04:03;;;;;;;1.77;0.90;;;21.30;99.90;;;;;;5095993;28;20024;-62
2022/08/21 04:06:29;;;;;;;1.17;0.85;;;21.60;99.90;;;;;;5095776;28;20381;-62
2022/08/21 04:08:55;;;;;;;1.52;0.90;;;21.80;99.90;;;;;;5096218;28;20040;-62
2022/08/21 04:11:20;;;;;;;1.50;1.02;;;21.40;99.90;;;;;;5095962;28;20016;-63
2022/08/21 04:13:47;;;;;;;2.13;1.13;;;21.40;99.90;;;;;;5095744;28;20031;-62
2022/08/21 04:16:14;;;;;;;1.48;0.90;;;21.80;99.90;;;;;;5095273;28;20373;-62
2022/08/21 04:18:40;;;;;;;1.25;0.82;;;21.50;99.90;;;;;;5095649;28;20039;-62
2022/08/21 04:21:07;;;;;;;1.00;0.90;;;21.10;99.90;;;;;;5095784;28;20020;-62
2022/08/21 04:23:33;;;;;;;1.40;1.02;;;21.30;99.90;;;;;;5095957;28;20082;-62
2022/08/21 04:25:58;;;;;;;1.40;1.00;;;21.70;99.90;;;;;;5095634;28;20024;-62
2022/08/21 04:28:27;;;;;;;1.80;1.00;;;21.30;99.90;;;;;;5095617;28;20105;-62
2022/08/21 04:30:53;;;;;;;1.63;1.05;;;21.20;99.90;;;;;;5094889;28;20031;-62
2022/08/21 04:33:20;;;;;;;1.55;1.00;;;21.40;99.90;;;;;;5095421;28;20480;-62
2022/08/21 04:35:47;;;;;;;1.42;0.80;;;21.00;99.90;;;;;;5095802;28;20500;-62
2022/08/21 04:38:13;;;;;;;1.00;0.90;;;21.20;99.90;;;;;;5095242;28;20024;-62
2022/08/21 04:40:39;;;;;;;2.00;1.00;;;21.10;99.90;;;;;;5095363;28;20035;-61
2022/08/21 04:43:08;;;;;;;1.52;0.90;;;21.00;99.90;;;;;;5095044;28;20065;-62
2022/08/21 04:45:45;;;;;;;2.42;1.00;;;21.30;99.90;;;;;;5094530;28;20043;-62
2022/08/21 04:48:13;;;;;;;1.67;0.93;;;21.10;99.90;;;;;;5095369;28;20053;-62
2022/08/21 04:50:42;;;;;;;1.88;1.00;;;21.50;99.90;;;;;;5095146;28;20071;-61
2022/08/21 04:53:22;;;;;;;2.55;0.88;;;21.10;99.90;;;;;;5094998;28;20020;-62
2022/08/21 04:55:49;;;;;;;1.45;0.80;;;20.80;99.90;;;;;;5094648;28;20020;-62
2022/08/21 04:58:17;;;;;;;0.80;0.80;;;;;;;;;;5094886;28;20048;-62
2022/08/21 05:00:44;;;;;;;1.05;0.73;;;20.80;99.90;;;;;;5094734;28;20476;-62
2022/08/21 05:03:14;;;;;;;1.13;0.85;;;21.00;99.90;;;;;;5094819;28;20036;-62
2022/08/21 05:05:40;;;;;;;1.13;0.90;;;21.10;99.90;;;;;;5094756;28;20028;-62
2022/08/21 05:08:09;;;;;;;0.95;0.73;;;21.00;99.90;;;;;;5094522;28;20170;-62
2022/08/21 05:10:35;;;;;;;0.98;0.77;;;21.00;99.90;;;;;;5095096;28;20389;-62
2022/08/21 05:13:01;;;;;;;2.15;0.95;;;20.80;99.90;;;;;;5094592;28;20050;-62
2022/08/21 05:15:27;;;;;;;2.72;0.90;;;21.00;99.90;;;;;;5094144;28;20095;-62
2022/08/21 05:17:53;;;;;;;1.38;1.00;;;20.90;99.90;;;;;;5094531;28;20468;-62
2022/08/21 05:20:19;;;;;;;3.17;1.02;;;20.90;99.90;;;;;;5094379;28;20059;-62
2022/08/21 05:22:45;;;;;;;1.73;1.02;;;20.70;99.90;;;;;;5094785;28;20028;-62
2022/08/21 05:25:11;;;;;;;1.08;0.90;;;20.90;99.90;;;;;;5094351;28;20020;-61
2022/08/21 05:27:38;;;;;;;1.90;0.90;;;20.70;99.90;;;;;;5094140;28;20028;-61
2022/08/21 05:30:07;;;;;;;3.17;0.80;;;20.70;99.90;;;;;;5093963;28;20036;-62
2022/08/21 05:32:33;;;;;;;1.25;1.00;;;21.00;99.90;;;;;;5094667;28;20095;-62
2022/08/21 05:34:59;;;;;;;1.38;0.80;;;20.90;99.90;;;;;;5094156;28;20504;-61
2022/08/21 05:37:25;;;;;;;1.33;0.90;;;20.90;99.90;;;;;;5094211;28;20021;-62
2022/08/21 05:39:51;;;;;;;1.73;0.85;;;21.10;99.90;;;;;;5093966;28;20039;-62
2022/08/21 05:42:16;;;;;;;3.00;1.00;;;20.80;99.90;;;;;;5093832;28;20031;-62
2022/08/21 05:44:42;;;;;;;1.92;1.00;;;21.00;99.90;;;;;;5093401;28;20093;-62
2022/08/21 05:47:10;;;;;;;1.45;0.90;;;20.70;99.90;;;;;;5094353;28;20027;-61
2022/08/21 05:49:36;;;;;;;1.45;0.80;;;20.90;99.90;;;;;;5093774;28;20032;-63
2022/08/21 05:52:03;;;;;;;1.23;0.90;;;20.80;99.90;;;;;;5093874;28;20488;-63
2022/08/21 05:54:29;;;;;;;0.95;0.80;;;20.90;99.90;;;;;;5093718;28;20024;-61
2022/08/21 05:56:55;;;;;;;2.17;0.93;;;20.80;99.90;;;;;;5093557;28;20024;-62
2022/08/21 05:59:21;;;;;;;1.40;0.90;;;20.90;99.90;;;;;;5093393;28;20377;-62
2022/08/21 06:01:47;;;;;;;1.77;1.05;;;20.90;99.90;;;;;;5093602;28;20028;-62
2022/08/21 06:04:13;;;;;;;2.05;0.95;;;20.90;99.90;;;;;;5093730;28;20026;-62
2022/08/21 06:06:39;;;;;;;2.72;0.80;;;21.20;99.90;;;;;;5093443;28;20031;-62
2022/08/21 06:09:05;;;;;;;2.03;1.00;;;21.20;99.90;;;;;;5093518;28;20029;-61
2022/08/21 06:11:31;;;;;;;1.52;1.10;;;21.00;99.90;;;;;;5093427;28;20024;-62
2022/08/21 06:13:57;;;;;;;1.60;0.90;;;21.30;99.90;;;;;;5093535;28;20020;-61
2022/08/21 06:16:23;;;;;;;3.55;0.95;;;21.30;99.90;;;;;;5108985;28;20598;-61
2022/08/21 06:18:49;;;;;;;1.17;0.82;;;21.10;99.90;;;;;;5093321;28;20038;-62
2022/08/21 06:21:15;;;;;;;2.40;1.08;;;21.50;99.90;;;;;;5093279;28;20039;-61
2022/08/21 06:23:42;;;;;;;2.05;1.13;;;21.80;99.90;;;;;;5093271;28;20024;-62
2022/08/21 06:26:08;;;;;;;1.00;0.90;;;21.80;99.90;;;;;;5093587;28;20020;-62
2022/08/21 06:28:36;;;;;;;2.55;1.10;;;22.00;99.90;;;;;;5092700;28;20034;-62
2022/08/21 06:31:22;;;;;;;3.00;1.20;;;21.80;99.90;;;;;;5093018;28;20393;-61
2022/08/21 06:33:48;;;;;;;3.75;0.90;;;21.80;99.90;;;;;;5093136;28;20115;-62
2022/08/21 06:36:14;;;;;;;1.20;0.98;;;22.00;99.90;;;;;;5093515;28;20030;-62
2022/08/21 06:38:40;;;;;;;1.63;0.80;;;22.10;99.90;;;;;;5092823;28;20035;-61
2022/08/21 06:41:06;;;;;;;2.22;1.10;;;22.10;99.90;;;;;;5092514;28;20036;-61
2022/08/21 06:43:32;;;;;;;1.10;0.80;;;22.30;99.90;;;;;;5093082;28;20028;-61
2022/08/21 06:45:58;;;;;;;1.20;1.00;;;22.00;99.90;;;;;;5092839;28;20429;-61
2022/08/21 06:48:23;;;;;;;2.47;1.00;;;21.80;99.90;;;;;;5092813;28;20032;-61
2022/08/21 06:50:49;;;;;;;1.88;1.00;;;22.00;99.90;;;;;;5092695;28;20446;-61
2022/08/21 06:53:19;;;;;;;1.52;0.90;;;21.90;99.90;;;;;;5092983;28;20028;-61
2022/08/21 06:55:46;;;;;;;1.17;0.90;;;21.80;99.90;;;;;;5092140;28;20024;-61
2022/08/21 06:58:13;;;;;;;2.40;1.00;;;21.80;99.90;;;;;;5092585;28;20027;-61
2022/08/21 07:00:42;;;;;;;1.00;0.82;;;22.10;99.90;;;;;;5093077;28;20024;-61
2022/08/21 07:03:07;;;;;;;1.35;0.85;;;22.20;99.90;;;;;;5092585;28;20024;-62
2022/08/21 07:05:33;;;;;;;1.35;0.90;;;22.10;99.90;;;;;;5092460;28;20034;-62
2022/08/21 07:07:59;;;;;;;2.40;1.08;;;22.80;99.90;;;;;;5092480;28;20020;-62
2022/08/21 07:10:26;;;;;;;2.42;1.05;;;23.10;99.90;;;;;;5091976;28;20035;-63
2022/08/21 07:12:53;;;;;;;1.98;0.88;;;23.90;99.90;;;;;;5092478;28;20042;-62
2022/08/21 07:15:19;;;;;;;2.45;1.00;;;24.20;99.90;;;;;;5092777;28;20106;-62
2022/08/21 07:17:45;;;;;;;1.42;0.82;;;23.80;99.90;;;;;;5091929;28;20020;-62
2022/08/21 07:20:11;;;;;;;2.10;0.80;;;23.60;99.90;;;;;;5092308;28;20590;-62
2022/08/21 07:22:38;;;;;;;1.50;0.90;;;24.00;99.90;;;;;;5092476;28;20111;-62
2022/08/21 07:25:06;;;;;;;1.35;0.98;;;24.20;99.90;;;;;;5091849;28;20488;-62
2022/08/21 07:27:31;;;;;;;1.67;1.08;;;25.20;99.90;;;;;;5090996;28;20031;-62
2022/08/21 07:29:58;;;;;;;0.80;0.80;;;25.20;99.90;;;;;;5092304;28;20401;-62
2022/08/21 07:32:24;;;;;;;2.10;0.70;;;25.90;99.90;;;;;;5092552;28;20077;-62
2022/08/21 07:34:49;;;;;;;1.52;0.90;;;25.90;99.90;;;;;;5092141;28;20476;-62
2022/08/21 07:37:15;;;;;;;1.35;0.90;;;25.70;99.90;;;;;;5092177;28;20038;-62
2022/08/21 07:39:41;;;;;;;2.28;0.90;;;25.60;99.90;;;;;;5091790;28;20037;-62
2022/08/21 07:42:07;;;;;;;1.48;0.90;;;25.90;99.90;;;;;;5092524;28;20099;-62
2022/08/21 07:44:34;;;;;;;1.00;0.80;;;26.90;99.90;;;;;;5091911;28;20052;-62
2022/08/21 07:47:01;;;;;;;2.88;0.90;;;27.60;99.90;;;;;;5092021;28;20051;-62
2022/08/21 07:49:27;;;;;;;1.30;0.80;;;27.90;99.90;;;;;;5092081;28;20564;-62
2022/08/21 07:51:53;;;;;;;1.23;0.90;;;27.00;99.90;;;;;;5092174;28;20028;-62
2022/08/21 07:54:19;;;;;;;1.63;0.90;;;27.00;99.90;;;;;;5091470;28;20081;-62
2022/08/21 07:56:45;;;;;;;1.00;0.90;;;27.40;99.90;;;;;;5092533;28;20028;-62
2022/08/21 07:59:11;;;;;;;1.27;0.75;;;27.20;99.90;;;;;;5091933;28;20038;-62
2022/08/21 08:01:36;;;;;;;1.52;0.77;;;26.30;99.90;;;;;;5107630;28;20135;-61
2022/08/21 08:04:03;;;;;;;2.63;0.90;;;26.60;99.90;;;;;;5092355;28;20031;-61
2022/08/21 08:06:30;;;;;;;1.30;0.82;;;26.30;99.90;;;;;;5091958;28;20051;-61
2022/08/21 08:08:56;;;;;;;0.70;0.70;;;27.20;99.90;;;;;;5091308;28;20032;-61
2022/08/21 08:11:22;;;;;;;2.20;0.90;;;26.90;99.90;;;;;;5091937;28;20473;-62
2022/08/21 08:13:51;;;;;;;2.08;0.90;;;26.50;99.90;;;;;;5092176;28;20027;-62
2022/08/21 08:16:17;;;;;;;1.55;0.88;;;26.70;99.90;;;;;;5091836;28;20564;-62
2022/08/21 08:18:44;;;;;;;1.30;0.90;;;26.30;99.90;;;;;;5091774;28;20492;-62
2022/08/21 08:21:11;;;;;;;0.85;0.80;;;26.20;99.90;;;;;;5092114;28;20024;-62
2022/08/21 08:23:37;;;;;;;2.22;0.90;;;26.00;99.90;;;;;;5091278;28;20097;-62
2022/08/21 08:26:03;;;;;;;1.40;0.93;;;26.00;99.90;;;;;;5091847;28;20024;-62
2022/08/21 08:28:31;;;;;;;1.40;0.77;;;26.20;99.90;;;;;;5092125;28;20032;-62
2022/08/21 08:30:57;;;;;;;1.25;0.90;;;25.90;99.90;;;;;;5094487;28;20066;-66
2022/08/21 08:33:23;;;;;;;1.05;0.90;;;25.30;99.90;;;;;;5095540;28;20020;-65
2022/08/21 08:35:50;;;;;;;2.33;0.90;;;25.40;99.90;;;;;;5095347;28;20504;-62
2022/08/21 08:38:19;;;;;;;1.23;0.80;;;25.90;99.90;;;;;;5110395;28;20025;-62
2022/08/21 08:41:04;;;;;;;0.70;0.70;;;25.90;99.90;;;;;;5095722;28;20021;-62
2022/08/21 08:43:32;;;;;;;2.28;0.90;;;25.90;99.90;;;;;;5094937;28;20108;-63
2022/08/21 08:46:01;;;;;;;1.27;0.85;;;26.20;99.90;;;;;;5095159;28;20032;-62
2022/08/21 08:49:07;;;;;;;2.08;0.90;;;26.00;99.90;;;;;;5095002;28;20040;-62
2022/08/21 08:51:45;;;;;;;2.83;1.10;;;26.10;99.90;;;;;;5071930;28;20067;-61
2022/08/21 08:54:16;;;;;;;2.40;0.95;;;26.30;99.90;;;;;;5072407;28;20116;-60
2022/08/21 08:56:41;;;;;;;0.70;0.70;;;26.30;99.90;;;;;;5072877;28;20035;-62
2022/08/21 08:59:16;;;;;;;1.77;0.90;;;26.30;99.90;;;;;;5072508;28;20032;-62
2022/08/21 09:01:42;;;;;;;1.15;0.98;;;26.30;99.90;;;;;;5055699;28;20029;-62
2022/08/21 09:04:12;;;;;;;1.05;0.90;;;26.10;99.90;;;;;;5072198;28;20032;-62
2022/08/21 09:07:06;;;;;;;1.25;0.90;;;26.80;99.90;;;;;;5071686;28;20040;-62
2022/08/21 09:09:51;;;;;;;1.40;1.00;;;26.80;99.90;;;;;;5072157;28;20040;-62
2022/08/21 09:12:23;;;;;;;1.83;1.15;;;26.30;99.90;;;;;;5072234;28;20028;-63
2022/08/21 09:15:04;;;;;;;2.00;1.07;;;26.30;99.90;;;;;;5072018;28;20033;-62
2022/08/21 09:17:55;;;;;;;1.10;1.00;;;26.40;99.90;;;;;;5072177;28;20037;-62
2022/08/21 09:20:31;;;;;;;1.30;0.95;;;27.10;99.90;;;;;;5071577;28;20037;-62
2022/08/21 09:22:57;;;;;;;1.55;1.00;;;27.00;99.90;;;;;;5071899;28;20062;-62
2022/08/21 09:25:31;;;;;;;1.42;1.00;;;27.60;99.90;;;;;;5072082;28;20435;-62
2022/08/21 09:27:56;;;;;;;3.53;1.20;;;26.90;99.90;;;;;;5091014;28;20075;-63
2022/08/21 09:30:32;;;;;;;2.25;1.38;;;27.40;99.90;;;;;;5094066;28;20073;-62
2022/08/21 09:32:57;;;;;;;1.60;1.40;;;27.70;99.90;;;;;;5094577;28;20445;-62
2022/08/21 09:35:25;;;;;;;5.03;1.30;;;27.90;99.90;;;;;;5093805;28;20063;-63
2022/08/21 09:37:59;;;;;;;2.85;0.80;;;28.20;99.90;;;;;;5094234;28;20100;-62
2022/08/21 09:40:44;;;;;;;2.75;0.80;;;28.00;99.90;;;;;;5093923;28;20481;-62
2022/08/21 09:43:20;;;;;;;1.98;0.90;;;27.90;99.90;;;;;;5093641;28;20020;-62
2022/08/21 09:45:47;;;;;;;5.15;1.02;;;27.60;99.90;;;;;;5093811;28;20514;-62
2022/08/21 09:48:24;;;;;;;2.10;0.85;;;28.20;99.90;;;;;;5094310;28;20396;-63
2022/08/21 09:50:52;;;;;;;4.70;0.90;;;28.60;98.90;;;;;;5093312;28;20070;-62
2022/08/21 09:53:26;;;;;;;3.08;0.82;;;28.90;98.90;;;;;;5094010;28;20095;-63
2022/08/21 09:58:46;;;;;;;0.57;0.57;;;28.60;98.80;;;;;;5094000;28;20085;-63
2022/08/21 10:01:17;;;;;;;1.40;0.60;;;28.60;99.00;;;;;;5094213;28;20032;-62
2022/08/21 10:03:43;;;;;;;0.85;0.63;;;28.10;99.10;;;;;;5093488;28;20020;-63
2022/08/21 10:06:20;;;;;;;2.38;0.60;;;27.90;99.60;;;;;;5093228;28;20078;-63
2022/08/21 10:08:45;;;;;;;0.82;0.70;;;27.70;99.90;;;;;;5093490;28;20032;-63
2022/08/21 10:11:17;;;;;;;0.70;0.60;;;27.10;99.90;;;;;;5093648;28;20028;-63
2022/08/21 10:14:03;;;;;;;2.33;0.70;;;27.30;99.90;;;;;;5093865;28;20036;-63
2022/08/21 10:16:31;;;;;;;2.17;0.70;;;26.80;99.90;;;;;;5093412;28;20032;-63
2022/08/21 10:19:03;;;;;;;4.10;0.90;;;26.60;99.90;;;;;;5092998;28;20416;-63
2022/08/21 10:21:43;;;;;;;1.33;0.70;;;26.90;99.90;;;;;;5093273;28;20059;-63
2022/08/21 10:24:32;;;;;;;0.75;0.50;;;27.00;99.90;;;;;;5093235;28;20020;-63
2022/08/21 10:27:27;;;;;;;2.00;0.70;;;27.60;99.90;;;;;;5093302;28;20440;-63
2022/08/21 10:30:10;;;;;;;4.13;1.00;;;27.10;99.90;;;;;;5093184;28;20392;-64
2022/08/21 10:33:05;;;;;;;3.15;1.33;;;26.90;99.90;;;;;;5108904;28;20465;-64
2022/08/21 10:35:42;;;;;;;3.15;1.13;;;26.70;99.90;;;;;;5092913;28;20039;-64
2022/08/21 10:38:22;;;;;;;4.18;1.00;;;26.50;99.90;;;;;;5093429;28;20477;-64
2022/08/21 10:41:07;;;;;;;1.42;1.00;;;26.70;99.90;;;;;;5093002;28;20028;-65
2022/08/21 10:44:01;;;;;;;2.95;1.13;;;26.70;99.90;;;;;;5093011;28;20469;-65
2022/08/21 10:46:48;;;;;;;2.13;1.15;;;27.20;99.90;;;;;;5092838;28;20385;-62
2022/08/21 10:49:21;;;;;;;2.08;0.90;;;26.60;99.90;;;;;;5092430;28;20196;-63
2022/08/21 10:51:54;;;;;;;1.35;0.80;;;26.70;99.90;;;;;;5092739;28;20020;-63
2022/08/21 10:54:23;;;;;;;2.35;0.82;;;26.60;99.90;;;;;;5092421;28;20555;-63
2022/08/21 10:56:51;;;;;;;0.77;0.63;;;27.50;99.20;;;;;;5092634;28;20380;-63
2022/08/21 10:59:49;;;;;;;1.25;0.70;;;27.80;98.50;;;;;;5092727;28;20107;-64
2022/08/21 11:02:41;;;;;;;0.60;0.60;;;26.90;99.80;;;;;;5092264;28;20095;-63
2022/08/21 11:05:19;;;;;;;0.82;0.70;;;26.90;99.90;;;;;;5069941;28;20171;-64
2022/08/21 11:07:56;;;;;;;0.80;0.52;;;27.00;99.90;;;;;;5070072;28;20029;-63
2022/08/21 11:10:33;;;;;;;0.52;0.52;;;27.00;99.90;;;;;;5069920;28;20086;-63
2022/08/21 11:13:07;;;;;;;0.63;0.60;;;27.20;99.80;;;;;;5070083;28;20025;-63
2022/08/21 11:16:07;;;;;;;0.85;0.70;;;26.80;99.90;;;;;;5070004;28;20043;-64
2022/08/21 11:19:05;;;;;;;0.60;0.50;;;26.70;99.90;;;;;;5029419;28;20124;-64
2022/08/21 11:21:41;;;;;;;0.93;0.68;;;26.90;99.90;;;;;;5021410;28;20037;-64
2022/08/21 11:24:15;;;;;;;0.93;0.70;;;27.00;99.90;;;;;;5030051;28;20029;-64
2022/08/21 11:26:51;;;;;;;0.70;0.60;;;26.80;99.90;;;;;;5030259;28;20470;-64
2022/08/21 11:29:35;;;;;;;1.10;0.70;;;26.80;99.90;;;;;;5029852;28;20048;-64
2022/08/21 11:32:25;;;;;;;1.23;0.70;;;26.60;99.90;;;;;;5029601;28;20025;-64
2022/08/21 11:35:01;;;;;;;0.77;0.75;;;26.70;99.90;;;;;;5029762;28;20033;-64
2022/08/21 11:37:48;;;;;;;0.63;0.63;;;27.30;99.10;;;;;;5029867;28;20389;-64
2022/08/21 11:40:32;;;;;;;1.23;0.80;;;27.10;99.50;;;;;;5029679;28;20389;-64
2022/08/21 11:43:00;;;;;;;0.85;0.68;;;26.70;99.90;;;;;;5030107;28;20033;-64
2022/08/21 11:45:28;;;;;;;0.98;0.70;;;26.80;99.90;;;;;;5029248;28;20101;-63
2022/08/21 11:48:07;;;;;;;2.60;0.70;;;27.20;99.90;;;;;;5029742;28;20037;-63
2022/08/21 11:50:37;;;;;;;0.88;0.80;;;27.30;98.90;;;;;;5030148;28;20042;-64
2022/08/21 11:53:14;;;;;;;0.73;0.73;;;27.30;99.30;;;;;;5029826;28;20026;-64
2022/08/21 11:55:50;;;;;;;0.88;0.70;;;26.80;99.80;;;;;;5064889;28;20432;-63
2022/08/21 11:58:30;;;;;;;0.90;0.90;;;27.30;99.50;;;;;;5071731;28;20028;-63
2022/08/21 12:01:19;;;;;;;0.85;0.82;;;27.60;99.00;;;;;;5071683;28;20124;-64
2022/08/21 12:04:28;;;;;;;1.20;0.80;;;27.60;98.60;;;;;;5068041;28;20044;-64
2022/08/21 12:06:54;;;;;;;1.38;0.80;;;27.50;98.70;;;;;;5072215;28;20032;-65
2022/08/21 12:09:35;;;;;;;1.00;0.90;;;27.40;98.80;;;;;;5075545;28;20044;-64
2022/08/21 12:12:30;;;;;;;1.25;1.08;;;27.60;98.60;;;;;;5075951;28;20074;-64
2022/08/21 12:15:05;;;;;;;1.77;0.90;;;27.20;99.00;;;;;;5074999;28;20093;-64
2022/08/21 12:17:39;;;;;;;1.10;1.00;;;27.50;99.00;;;;;;5075814;28;20489;-64
2022/08/21 12:20:36;;;;;;;1.58;0.90;;;27.90;97.20;;;;;;5075625;28;20021;-64
2022/08/21 12:23:13;;;;;;;1.17;0.98;;;27.70;98.20;;;;;;5075367;28;20027;-64
2022/08/21 12:25:43;;;;;;;1.02;0.90;;;27.60;98.10;;;;;;5075249;28;20024;-63
2022/08/21 12:28:12;;;;;;;1.50;1.25;;;27.90;97.90;;;;;;5074668;28;20045;-64
2022/08/21 12:30:43;;;;;;;2.55;1.20;;;27.20;98.50;;;;;;5074874;28;20035;-62
2022/08/21 12:33:30;;;;;;;1.05;0.88;;;27.70;98.10;;;;;;5075491;28;20480;-62
2022/08/21 12:36:11;;;;;;;0.88;0.80;;;27.80;98.00;;;;;;5074346;28;20491;-62
2022/08/21 12:39:08;;;;;;;1.02;0.93;;;27.90;97.70;;;;;;5078678;28;20819;-63
2022/08/21 12:41:56;;;;;;;1.88;1.05;;;28.30;98.10;;;;;;5095381;28;20102;-63
2022/08/21 12:44:33;;;;;;;1.25;1.10;;;28.00;98.10;;;;;;5094083;28;20052;-64
2022/08/21 12:47:04;;;;;;;1.67;1.10;;;27.90;98.40;;;;;;5095460;28;20077;-63
2022/08/21 12:49:36;;;;;;;1.10;1.00;;;27.90;98.00;;;;;;5094859;28;20404;-64
2022/08/21 12:52:11;;;;;;;1.20;1.10;;;27.90;97.90;;;;;;5095007;28;20067;-64
2022/08/21 12:54:43;;;;;;;2.40;1.08;;;27.90;97.60;;;;;;5095008;28;20465;-63
2022/08/21 12:57:17;;;;;;;1.20;1.10;;;27.70;98.20;;;;;;5094766;28;20024;-64
2022/08/21 12:59:44;;;;;;;2.05;1.20;;;27.80;98.10;;;;;;5094510;28;20104;-63
2022/08/21 13:02:19;;;;;;;1.42;1.00;;;27.70;98.10;;;;;;5094701;28;20073;-64
2022/08/21 13:04:47;;;;;;;3.63;1.23;;;27.60;98.10;;;;;;5095050;28;20024;-65
2022/08/21 13:07:19;;;;;;;4.13;1.20;;;27.60;98.10;;;;;;5094715;28;20116;-65